Time;durP1;ratioP1;P1;durP2;ratioP2;P2;SDS_P1;SDS_P2;PMS_P1;PMS_P2;Temp;Humidity;BMP_temperature;BMP_pressure;BME280_temperature;BME280_humidity;BME280_pressure;Samples;Min_cycle;Max_cycle;Signal;HPM_P1;HPM_P2
2021/08/09 00:01:02;;;;;;;13.65;3.95;;;22.80;70.20;;;;;;5055578;28;20033;-74
2021/08/09 00:03:27;;;;;;;5.70;3.65;;;22.80;70.20;;;;;;5055576;28;20404;-74
2021/08/09 00:05:53;;;;;;;5.53;3.60;;;22.70;70.20;;;;;;5054880;28;20044;-73
2021/08/09 00:08:19;;;;;;;4.95;3.95;;;22.70;70.40;;;;;;5054662;28;20040;-75
2021/08/09 00:10:44;;;;;;;6.22;4.10;;;22.70;70.60;;;;;;5054673;28;20464;-73
2021/08/09 00:13:10;;;;;;;4.72;4.20;;;22.70;70.90;;;;;;5054796;28;20021;-74
2021/08/09 00:15:36;;;;;;;5.78;4.53;;;22.70;71.00;;;;;;5054850;28;20040;-73
2021/08/09 00:18:02;;;;;;;4.47;3.80;;;22.60;71.10;;;;;;5054684;28;20091;-74
2021/08/09 00:20:28;;;;;;;6.05;3.60;;;22.60;71.30;;;;;;5054445;28;20032;-74
2021/08/09 00:22:55;;;;;;;6.38;4.00;;;22.50;71.20;;;;;;5053432;28;20029;-74
2021/08/09 00:25:21;;;;;;;5.75;4.05;;;22.60;71.40;;;;;;5054619;28;20064;-75
2021/08/09 00:27:47;;;;;;;6.70;4.32;;;22.50;71.40;;;;;;5054538;28;20028;-74
2021/08/09 00:30:13;;;;;;;5.93;3.80;;;22.50;71.60;;;;;;5054783;28;20086;-74
2021/08/09 00:32:39;;;;;;;6.78;4.05;;;22.50;71.60;;;;;;5054490;28;20482;-75
2021/08/09 00:35:06;;;;;;;7.40;4.00;;;22.40;71.70;;;;;;5054817;28;20171;-74
2021/08/09 00:37:33;;;;;;;7.70;4.40;;;22.40;71.80;;;;;;5054651;28;20131;-73
2021/08/09 00:39:58;;;;;;;6.40;4.35;;;22.40;71.90;;;;;;5054891;28;20070;-76
2021/08/09 00:42:24;;;;;;;5.57;4.35;;;22.30;72.00;;;;;;5054271;28;20108;-75
2021/08/09 00:44:50;;;;;;;6.25;4.10;;;22.30;72.10;;;;;;5054554;28;20051;-74
2021/08/09 00:47:16;;;;;;;6.70;3.97;;;22.30;72.20;;;;;;5053979;28;20032;-73
2021/08/09 00:49:41;;;;;;;7.18;4.53;;;22.30;72.20;;;;;;5054797;28;20056;-73
2021/08/09 00:52:07;;;;;;;4.93;4.47;;;22.20;72.30;;;;;;5053778;28;20033;-74
2021/08/09 00:54:35;;;;;;;5.30;4.20;;;22.20;72.40;;;;;;5053409;28;20055;-73
2021/08/09 00:57:02;;;;;;;6.65;4.43;;;22.20;72.50;;;;;;5053789;28;20025;-74
2021/08/09 00:59:29;;;;;;;7.35;4.32;;;22.10;72.60;;;;;;5053883;28;20104;-74
2021/08/09 01:01:54;;;;;;;5.50;4.10;;;22.10;72.90;;;;;;5054247;28;20037;-74
2021/08/09 01:04:20;;;;;;;5.70;4.13;;;22.10;72.90;;;;;;5053245;28;20025;-73
2021/08/09 01:06:47;;;;;;;6.40;4.07;;;22.10;72.90;;;;;;5054163;28;20017;-74
2021/08/09 01:09:25;;;;;;;5.78;4.10;;;22.10;72.90;;;;;;5052049;28;20032;-75
2021/08/09 01:12:16;;;;;;;5.47;4.13;;;22.00;73.00;;;;;;5053592;28;20036;-74
2021/08/09 01:15:11;;;;;;;5.07;4.20;;;22.00;72.90;;;;;;5053763;28;20037;-74
2021/08/09 01:17:41;;;;;;;4.88;4.13;;;22.00;72.90;;;;;;5054413;28;20029;-74
2021/08/09 01:20:33;;;;;;;7.10;4.53;;;21.90;72.90;;;;;;5053736;28;20020;-74
2021/08/09 01:23:27;;;;;;;4.43;4.03;;;21.90;72.90;;;;;;5053025;28;20122;-74
2021/08/09 01:26:15;;;;;;;6.90;4.40;;;21.90;73.10;;;;;;5053657;28;20033;-74
2021/08/09 01:28:42;;;;;;;6.97;4.63;;;21.90;72.90;;;;;;5068602;28;20067;-74
2021/08/09 01:31:08;;;;;;;4.45;4.05;;;21.90;72.80;;;;;;5053934;28;20033;-75
2021/08/09 01:33:34;;;;;;;6.20;4.03;;;21.90;73.00;;;;;;5053701;28;20167;-74
2021/08/09 01:36:02;;;;;;;4.78;4.28;;;21.80;73.00;;;;;;5053717;28;20025;-74
2021/08/09 01:38:29;;;;;;;5.30;4.35;;;21.80;73.10;;;;;;5053911;28;20064;-74
2021/08/09 01:40:56;;;;;;;6.32;4.18;;;21.80;73.20;;;;;;5053304;28;20025;-74
2021/08/09 01:43:24;;;;;;;5.95;4.40;;;21.80;73.30;;;;;;5053507;28;20033;-74
2021/08/09 01:45:52;;;;;;;7.25;4.45;;;21.70;73.50;;;;;;5053488;28;20040;-74
2021/08/09 01:48:18;;;;;;;6.75;5.13;;;21.70;73.80;;;;;;5053741;28;20033;-74
2021/08/09 01:50:44;;;;;;;4.70;4.00;;;21.70;73.90;;;;;;5053482;28;20025;-74
2021/08/09 01:53:11;;;;;;;5.32;4.68;;;21.70;74.10;;;;;;5054039;28;20471;-74
2021/08/09 01:55:38;;;;;;;5.60;4.45;;;21.70;74.20;;;;;;5053378;28;20057;-74
2021/08/09 01:58:04;;;;;;;5.20;4.50;;;21.70;74.40;;;;;;5053661;28;20057;-76
2021/08/09 02:00:30;;;;;;;5.07;4.30;;;21.70;74.50;;;;;;5053083;28;20550;-75
2021/08/09 02:02:56;;;;;;;4.65;4.07;;;21.70;74.70;;;;;;5053579;28;20028;-73
2021/08/09 02:05:23;;;;;;;4.55;4.10;;;21.70;74.80;;;;;;5053338;28;20075;-74
2021/08/09 02:07:50;;;;;;;7.07;4.65;;;21.70;74.90;;;;;;5052373;28;20416;-75
2021/08/09 02:10:22;;;;;;;7.32;4.80;;;21.70;75.00;;;;;;5053363;28;20049;-75
2021/08/09 02:12:51;;;;;;;5.68;4.65;;;21.70;75.10;;;;;;5052969;28;20032;-74
2021/08/09 02:15:28;;;;;;;5.28;4.20;;;21.60;75.00;;;;;;5053139;28;20420;-73
2021/08/09 02:18:03;;;;;;;7.38;4.60;;;21.60;75.00;;;;;;5053018;28;20037;-74
2021/08/09 02:20:33;;;;;;;6.30;4.50;;;21.60;75.00;;;;;;5054473;28;20112;-73
2021/08/09 02:23:03;;;;;;;4.85;4.40;;;21.60;75.00;;;;;;5056952;28;20079;-73
2021/08/09 02:25:33;;;;;;;6.68;4.28;;;21.60;75.10;;;;;;5057185;28;20090;-74
2021/08/09 02:28:06;;;;;;;7.32;4.82;;;21.60;75.10;;;;;;5056857;28;20056;-74
2021/08/09 02:30:33;;;;;;;4.80;3.95;;;21.60;75.20;;;;;;5056867;28;20021;-74
2021/08/09 02:33:00;;;;;;;5.25;4.75;;;21.50;75.10;;;;;;5057047;28;20028;-76
2021/08/09 02:35:27;;;;;;;6.28;4.53;;;21.50;75.10;;;;;;5056728;28;20086;-73
2021/08/09 02:37:54;;;;;;;5.90;4.13;;;21.50;75.10;;;;;;5056716;28;20082;-73
2021/08/09 02:40:21;;;;;;;5.53;4.07;;;21.50;75.10;;;;;;5056672;28;20036;-74
2021/08/09 02:42:48;;;;;;;5.03;4.53;;;21.50;75.10;;;;;;5056607;28;20091;-74
2021/08/09 02:45:14;;;;;;;5.13;4.25;;;21.60;75.00;;;;;;5056543;28;20373;-75
2021/08/09 02:47:42;;;;;;;5.00;4.40;;;21.60;75.10;;;;;;5056263;28;20032;-74
2021/08/09 02:50:13;;;;;;;5.28;4.50;;;21.60;75.00;;;;;;5055181;28;20032;-75
2021/08/09 02:52:39;;;;;;;5.18;4.18;;;21.60;75.10;;;;;;5056236;28;20523;-74
2021/08/09 02:55:08;;;;;;;4.63;4.15;;;21.60;75.10;;;;;;5056590;28;20068;-74
2021/08/09 02:57:35;;;;;;;6.28;4.18;;;21.60;75.00;;;;;;5056660;28;20029;-74
2021/08/09 03:00:01;;;;;;;4.32;3.72;;;21.70;74.90;;;;;;5056573;28;20369;-74
2021/08/09 03:02:29;;;;;;;5.53;4.70;;;21.70;75.40;;;;;;5054680;28;20108;-74
2021/08/09 03:04:57;;;;;;;4.82;4.40;;;21.70;74.80;;;;;;5056185;28;20440;-73
2021/08/09 03:07:24;;;;;;;6.93;4.75;;;21.70;74.80;;;;;;5056141;28;20457;-74
2021/08/09 03:09:51;;;;;;;5.32;4.22;;;21.70;74.70;;;;;;5055765;28;20472;-74
2021/08/09 03:12:18;;;;;;;6.18;4.22;;;21.70;74.60;;;;;;5055809;28;20433;-74
2021/08/09 03:14:50;;;;;;;5.25;4.75;;;21.70;74.50;;;;;;5055937;28;20017;-74
2021/08/09 03:17:15;;;;;;;4.35;3.90;;;21.80;74.40;;;;;;5054752;28;20025;-75
2021/08/09 03:19:41;;;;;;;4.63;4.22;;;21.80;74.30;;;;;;5054875;28;20021;-75
2021/08/09 03:22:09;;;;;;;4.35;3.95;;;21.90;74.30;;;;;;5055861;28;20047;-74
2021/08/09 03:24:35;;;;;;;3.92;3.53;;;21.90;74.10;;;;;;5054577;28;20029;-74
2021/08/09 03:27:01;;;;;;;7.57;3.97;;;22.00;74.00;;;;;;5055446;28;20025;-74
2021/08/09 03:29:27;;;;;;;5.22;3.83;;;22.00;74.00;;;;;;5055727;28;20139;-73
2021/08/09 03:31:52;;;;;;;5.93;4.00;;;22.00;74.00;;;;;;5054672;28;20032;-74
2021/08/09 03:34:18;;;;;;;4.15;3.60;;;22.00;74.00;;;;;;5056165;28;20025;-74
2021/08/09 03:36:46;;;;;;;8.52;4.13;;;22.10;74.00;;;;;;5055532;28;20041;-74
2021/08/09 03:39:11;;;;;;;9.13;4.13;;;22.10;74.00;;;;;;5056070;28;20055;-74
2021/08/09 03:41:37;;;;;;;3.70;3.40;;;22.20;73.90;;;;;;5055541;28;20454;-74
2021/08/09 03:44:04;;;;;;;5.70;4.07;;;22.20;73.80;;;;;;5055410;28;20412;-74
2021/08/09 03:46:30;;;;;;;4.53;3.92;;;22.30;73.90;;;;;;5055807;28;20512;-75
2021/08/09 03:48:56;;;;;;;6.53;4.18;;;22.40;73.60;;;;;;5055030;28;20029;-75
2021/08/09 03:51:21;;;;;;;6.57;4.15;;;22.40;73.40;;;;;;5054992;28;20033;-75
2021/08/09 03:53:47;;;;;;;10.85;4.15;;;22.40;73.20;;;;;;5055623;28;20048;-74
2021/08/09 03:56:13;;;;;;;6.80;4.10;;;22.50;73.10;;;;;;5054223;28;20108;-74
2021/08/09 03:58:39;;;;;;;6.82;4.05;;;22.60;73.00;;;;;;5053864;28;20140;-73
2021/08/09 04:01:06;;;;;;;4.57;4.15;;;22.60;72.90;;;;;;5037635;28;20032;-74
2021/08/09 04:03:32;;;;;;;6.30;4.28;;;22.60;72.70;;;;;;5054634;28;20028;-74
2021/08/09 04:05:58;;;;;;;4.15;3.65;;;22.70;72.70;;;;;;5054781;28;20477;-74
2021/08/09 04:08:24;;;;;;;7.22;4.47;;;22.80;72.50;;;;;;5055288;28;20032;-74
2021/08/09 04:10:49;;;;;;;7.40;4.22;;;22.80;72.50;;;;;;5054438;28;20037;-75
2021/08/09 04:13:15;;;;;;;7.35;3.80;;;22.90;72.40;;;;;;5055477;28;20031;-75
2021/08/09 04:15:41;;;;;;;4.70;4.03;;;22.90;72.20;;;;;;5054753;28;20384;-74
2021/08/09 04:18:06;;;;;;;5.28;3.95;;;23.00;72.30;;;;;;5054798;28;20108;-74
2021/08/09 04:20:33;;;;;;;5.38;3.75;;;23.00;72.10;;;;;;5054745;28;20036;-75
2021/08/09 04:22:58;;;;;;;5.97;4.05;;;23.10;72.00;;;;;;5054789;28;20033;-74
2021/08/09 04:25:27;;;;;;;5.05;4.00;;;23.20;72.00;;;;;;5054774;28;20108;-74
2021/08/09 04:27:53;;;;;;;4.78;4.35;;;23.20;71.90;;;;;;5054902;28;20091;-74
2021/08/09 04:30:18;;;;;;;4.50;4.10;;;23.30;71.70;;;;;;5054564;28;20127;-74
2021/08/09 04:32:44;;;;;;;7.10;4.43;;;23.40;71.60;;;;;;5054792;28;20032;-74
2021/08/09 04:35:12;;;;;;;4.45;4.05;;;23.40;71.40;;;;;;5054395;28;20033;-74
2021/08/09 04:37:39;;;;;;;9.25;5.00;;;23.50;71.30;;;;;;5053149;28;20115;-74
2021/08/09 04:40:07;;;;;;;4.88;4.20;;;23.60;71.20;;;;;;5054077;28;20029;-76
2021/08/09 04:42:42;;;;;;;7.85;4.50;;;23.60;71.10;;;;;;5053335;28;20079;-76
2021/08/09 04:45:08;;;;;;;4.97;4.53;;;23.70;71.10;;;;;;5053746;28;20064;-74
2021/08/09 04:47:33;;;;;;;8.30;4.55;;;23.70;70.80;;;;;;5053850;28;20052;-75
2021/08/09 04:50:07;;;;;;;6.97;4.53;;;23.80;70.70;;;;;;5054215;28;20029;-75
2021/08/09 04:52:39;;;;;;;5.05;4.45;;;23.80;70.60;;;;;;5054358;28;20049;-75
2021/08/09 04:55:05;;;;;;;12.30;5.38;;;23.90;70.60;;;;;;5053789;28;20029;-75
2021/08/09 04:57:31;;;;;;;5.20;4.68;;;23.90;70.60;;;;;;5054085;28;20025;-76
2021/08/09 05:00:00;;;;;;;6.57;4.78;;;24.00;70.60;;;;;;5054075;28;20480;-74
2021/08/09 05:02:44;;;;;;;7.38;4.75;;;24.00;70.50;;;;;;5053801;28;20388;-75
2021/08/09 05:05:18;;;;;;;9.45;5.28;;;24.10;70.30;;;;;;5068621;28;20028;-74
2021/08/09 05:07:43;;;;;;;8.13;4.77;;;24.10;70.20;;;;;;5047798;28;20037;-76
2021/08/09 05:10:10;;;;;;;8.77;4.70;;;24.10;70.10;;;;;;5054153;28;20036;-76
2021/08/09 05:12:36;;;;;;;6.22;5.05;;;24.10;70.00;;;;;;5053780;28;20025;-75
2021/08/09 05:15:02;;;;;;;5.63;5.03;;;24.10;69.80;;;;;;5053738;28;20040;-75
2021/08/09 05:17:28;;;;;;;7.50;4.95;;;24.20;69.80;;;;;;5052462;28;20036;-74
2021/08/09 05:19:54;;;;;;;9.35;5.30;;;24.20;69.50;;;;;;5053671;28;20029;-75
2021/08/09 05:22:20;;;;;;;7.75;5.30;;;24.30;69.30;;;;;;5053594;28;20388;-74
2021/08/09 05:24:47;;;;;;;7.55;4.97;;;24.30;69.10;;;;;;5053570;28;20025;-75
2021/08/09 05:27:13;;;;;;;6.82;5.15;;;24.40;69.00;;;;;;5053569;28;20116;-75
2021/08/09 05:29:38;;;;;;;7.38;5.40;;;24.40;68.70;;;;;;5053442;28;20120;-76
2021/08/09 05:32:05;;;;;;;11.43;5.05;;;24.50;68.50;;;;;;5052220;28;20032;-76
2021/08/09 05:34:31;;;;;;;7.03;4.93;;;24.50;68.40;;;;;;5052202;28;20082;-75
2021/08/09 05:36:57;;;;;;;8.45;5.35;;;24.50;68.30;;;;;;5053356;28;20036;-75
2021/08/09 05:39:23;;;;;;;7.07;5.07;;;24.60;68.20;;;;;;5053353;28;20025;-74
2021/08/09 05:41:49;;;;;;;7.97;5.75;;;24.70;68.10;;;;;;5053391;28;20025;-74
2021/08/09 05:44:14;;;;;;;7.38;5.45;;;24.80;68.10;;;;;;5053892;28;20330;-74
2021/08/09 05:46:40;;;;;;;5.82;5.22;;;24.80;68.10;;;;;;5053374;28;20086;-75
2021/08/09 05:49:06;;;;;;;5.85;4.93;;;24.90;67.90;;;;;;5053337;28;20075;-75
2021/08/09 05:51:38;;;;;;;6.97;5.30;;;24.90;67.80;;;;;;5052587;28;20373;-76
2021/08/09 05:54:03;;;;;;;7.03;5.00;;;24.90;67.80;;;;;;5052918;28;20103;-74
2021/08/09 05:56:29;;;;;;;7.20;5.57;;;24.90;67.90;;;;;;5055896;28;20033;-74
2021/08/09 05:58:55;;;;;;;6.80;5.68;;;24.90;67.90;;;;;;5056045;28;20033;-75
2021/08/09 06:01:20;;;;;;;8.32;5.38;;;24.90;67.90;;;;;;5055755;28;20032;-76
2021/08/09 06:03:46;;;;;;;10.43;5.38;;;25.00;68.00;;;;;;5056544;28;20063;-75
2021/08/09 06:06:18;;;;;;;7.60;5.45;;;25.00;67.90;;;;;;5057426;28;20032;-74
2021/08/09 06:08:45;;;;;;;5.80;4.63;;;25.10;67.80;;;;;;5055895;28;20036;-74
2021/08/09 06:11:11;;;;;;;6.78;5.25;;;25.10;67.70;;;;;;5057199;28;20051;-74
2021/08/09 06:13:37;;;;;;;6.80;4.93;;;25.10;67.60;;;;;;5057031;28;20021;-74
2021/08/09 06:16:03;;;;;;;6.07;4.90;;;25.20;67.60;;;;;;5055816;28;20126;-75
2021/08/09 06:18:32;;;;;;;5.78;5.20;;;25.20;67.40;;;;;;5056487;28;20043;-75
2021/08/09 06:20:58;;;;;;;6.28;5.20;;;25.20;67.30;;;;;;5056298;28;20021;-74
2021/08/09 06:23:24;;;;;;;5.68;4.80;;;25.30;67.40;;;;;;5057248;28;20358;-75
2021/08/09 06:25:49;;;;;;;7.30;4.65;;;25.40;67.40;;;;;;5057004;28;20065;-75
2021/08/09 06:28:15;;;;;;;6.35;5.15;;;25.40;67.40;;;;;;5056603;28;20032;-75
2021/08/09 06:30:41;;;;;;;9.85;4.95;;;25.40;67.40;;;;;;5055241;28;20025;-76
2021/08/09 06:33:06;;;;;;;8.95;5.18;;;25.50;67.40;;;;;;5056495;28;20021;-74
2021/08/09 06:35:32;;;;;;;6.93;5.40;;;25.60;67.30;;;;;;5071349;28;20025;-74
2021/08/09 06:37:58;;;;;;;6.10;5.10;;;25.60;67.30;;;;;;5056925;28;20471;-75
2021/08/09 06:40:23;;;;;;;5.07;4.68;;;25.70;67.20;;;;;;5056381;28;20083;-75
2021/08/09 06:42:49;;;;;;;7.82;4.95;;;25.70;67.20;;;;;;5056274;28;20056;-76
2021/08/09 06:45:15;;;;;;;8.02;5.13;;;25.80;67.20;;;;;;5056529;28;20350;-75
2021/08/09 06:47:40;;;;;;;8.65;5.22;;;25.80;67.10;;;;;;5057139;28;20052;-76
2021/08/09 06:50:08;;;;;;;6.28;5.03;;;25.90;67.00;;;;;;5054764;28;20033;-76
2021/08/09 06:52:34;;;;;;;6.28;4.88;;;26.00;66.90;;;;;;5056251;28;20056;-74
2021/08/09 06:54:59;;;;;;;6.22;4.70;;;26.10;66.70;;;;;;5056509;28;20029;-78
2021/08/09 06:57:26;;;;;;;8.00;5.03;;;26.20;66.60;;;;;;5055918;28;20057;-75
2021/08/09 06:59:52;;;;;;;8.40;4.88;;;26.20;66.40;;;;;;5055928;28;20025;-75
2021/08/09 07:02:18;;;;;;;10.52;4.90;;;26.30;66.20;;;;;;5056165;28;20048;-74
2021/08/09 07:04:43;;;;;;;7.90;4.65;;;26.40;66.20;;;;;;5056058;28;20025;-74
2021/08/09 07:07:11;;;;;;;8.00;5.35;;;26.40;66.20;;;;;;5054768;28;20111;-74
2021/08/09 07:09:37;;;;;;;7.88;5.38;;;26.50;66.20;;;;;;5053677;28;20389;-74
2021/08/09 07:12:06;;;;;;;9.52;5.40;;;26.50;66.20;;;;;;5054663;28;20021;-74
2021/08/09 07:14:31;;;;;;;5.63;5.07;;;26.60;66.40;;;;;;5054745;28;20061;-74
2021/08/09 07:16:58;;;;;;;9.25;5.55;;;26.70;66.30;;;;;;5055100;28;20064;-74
2021/08/09 07:19:24;;;;;;;9.07;5.07;;;26.80;66.20;;;;;;5054702;28;20487;-75
2021/08/09 07:21:50;;;;;;;7.85;5.25;;;26.90;66.20;;;;;;5055631;28;20057;-75
2021/08/09 07:24:15;;;;;;;5.68;4.97;;;27.00;65.90;;;;;;5055843;28;20025;-75
2021/08/09 07:26:41;;;;;;;8.30;5.40;;;27.10;65.60;;;;;;5055594;28;20032;-74
2021/08/09 07:29:07;;;;;;;6.22;5.28;;;27.20;65.20;;;;;;5056223;28;20079;-74
2021/08/09 07:31:33;;;;;;;7.05;4.93;;;27.30;65.00;;;;;;5070939;28;20033;-75
2021/08/09 07:33:59;;;;;;;6.13;4.95;;;27.40;64.70;;;;;;5055863;28;20076;-74
2021/08/09 07:36:41;;;;;;;7.25;5.10;;;27.50;64.60;;;;;;5055958;28;20057;-76
2021/08/09 07:39:09;;;;;;;8.45;5.65;;;27.50;64.40;;;;;;5055678;28;20091;-74
2021/08/09 07:41:41;;;;;;;5.57;5.05;;;27.60;64.20;;;;;;5055690;28;20028;-75
2021/08/09 07:44:10;;;;;;;8.05;5.40;;;27.70;64.00;;;;;;5055391;28;20029;-74
2021/08/09 07:46:35;;;;;;;7.57;5.13;;;27.80;63.90;;;;;;5055179;28;20032;-75
2021/08/09 07:49:01;;;;;;;8.05;5.00;;;27.90;63.80;;;;;;5070950;28;20029;-74
2021/08/09 07:51:27;;;;;;;6.13;5.22;;;28.00;63.60;;;;;;5054149;28;20029;-75
2021/08/09 07:53:59;;;;;;;5.93;5.13;;;28.10;63.30;;;;;;5055857;28;20429;-75
2021/08/09 07:56:25;;;;;;;6.68;4.53;;;28.20;63.10;;;;;;5055264;28;20025;-75
2021/08/09 07:58:56;;;;;;;9.25;5.07;;;28.30;62.90;;;;;;5055111;28;20480;-75
2021/08/09 08:01:22;;;;;;;5.45;4.95;;;28.50;62.80;;;;;;5070217;28;20029;-75
2021/08/09 08:03:53;;;;;;;9.63;4.78;;;28.60;62.40;;;;;;5055173;28;20039;-74
2021/08/09 08:06:19;;;;;;;10.63;4.45;;;28.70;62.30;;;;;;5052842;28;20037;-76
2021/08/09 08:08:45;;;;;;;8.95;4.93;;;28.80;61.90;;;;;;5054751;28;20079;-74
2021/08/09 08:11:10;;;;;;;9.32;4.38;;;29.00;61.70;;;;;;5054322;28;20457;-75
2021/08/09 08:13:36;;;;;;;5.07;4.30;;;29.10;61.40;;;;;;5070097;28;20491;-76
2021/08/09 08:16:02;;;;;;;6.07;4.93;;;29.30;61.20;;;;;;5055231;28;20040;-75
2021/08/09 08:18:27;;;;;;;10.40;4.43;;;29.40;60.90;;;;;;5054108;28;20404;-77
2021/08/09 08:20:54;;;;;;;6.65;4.70;;;29.60;60.60;;;;;;5054412;28;20110;-75
2021/08/09 08:23:19;;;;;;;6.13;4.68;;;29.80;60.30;;;;;;5054606;28;20029;-75
2021/08/09 08:25:45;;;;;;;5.53;4.57;;;29.90;60.00;;;;;;5054683;28;20025;-75
2021/08/09 08:28:11;;;;;;;6.93;4.30;;;30.10;59.70;;;;;;5054449;28;20025;-75
2021/08/09 08:30:36;;;;;;;5.32;4.75;;;30.30;60.00;;;;;;5053100;28;20575;-75
2021/08/09 08:33:02;;;;;;;6.80;3.92;;;30.40;59.30;;;;;;5054579;28;20024;-75
2021/08/09 08:35:28;;;;;;;8.20;4.40;;;30.60;58.90;;;;;;5053859;28;20035;-79
2021/08/09 08:37:54;;;;;;;7.93;4.75;;;30.70;58.70;;;;;;5053672;28;20033;-74
2021/08/09 08:40:20;;;;;;;7.28;4.70;;;31.00;58.40;;;;;;5053789;28;20364;-76
2021/08/09 08:42:47;;;;;;;7.43;5.20;;;31.20;58.00;;;;;;5052966;28;20112;-75
2021/08/09 08:45:20;;;;;;;6.47;4.55;;;31.30;57.70;;;;;;5053765;28;20357;-75
2021/08/09 08:47:48;;;;;;;6.28;4.95;;;31.50;57.50;;;;;;5052828;28;20032;-76
2021/08/09 08:50:17;;;;;;;6.35;4.85;;;31.70;57.40;;;;;;5054420;28;20033;-76
2021/08/09 08:52:47;;;;;;;7.55;4.68;;;32.00;57.20;;;;;;5054305;28;20045;-77
2021/08/09 08:55:15;;;;;;;6.05;4.85;;;32.20;56.60;;;;;;5054540;28;20044;-76
2021/08/09 08:57:41;;;;;;;8.57;5.10;;;32.40;56.00;;;;;;5054154;28;20025;-75
2021/08/09 09:00:08;;;;;;;7.20;5.15;;;32.70;55.80;;;;;;5053624;28;20041;-76
2021/08/09 09:02:36;;;;;;;6.55;4.68;;;32.90;55.30;;;;;;5053876;28;20021;-76
2021/08/09 09:05:16;;;;;;;6.05;5.15;;;33.10;55.00;;;;;;5053564;28;20445;-76
2021/08/09 09:07:45;;;;;;;8.13;5.30;;;33.30;54.50;;;;;;5054465;28;20049;-77
2021/08/09 09:10:17;;;;;;;11.13;5.28;;;33.50;54.20;;;;;;5053050;28;20356;-76
2021/08/09 09:12:43;;;;;;;7.50;4.90;;;33.80;53.80;;;;;;5053656;28;20362;-76
2021/08/09 09:15:09;;;;;;;7.18;5.45;;;34.00;53.20;;;;;;5053568;28;20075;-75
2021/08/09 09:17:39;;;;;;;7.90;4.97;;;34.30;53.00;;;;;;5053699;28;20075;-76
2021/08/09 09:20:27;;;;;;;7.10;5.00;;;34.60;52.50;;;;;;5053619;28;20021;-75
2021/08/09 09:23:15;;;;;;;9.60;5.97;;;34.90;52.10;;;;;;5052890;28;20056;-75
2021/08/09 09:25:40;;;;;;;7.25;5.13;;;35.10;51.40;;;;;;5053558;28;20469;-74
2021/08/09 09:28:22;;;;;;;6.22;5.47;;;35.30;51.40;;;;;;5053530;28;20025;-76
2021/08/09 09:30:48;;;;;;;7.97;5.78;;;35.60;50.90;;;;;;5051158;28;20024;-76
2021/08/09 09:33:14;;;;;;;5.40;4.75;;;35.80;50.80;;;;;;5053470;28;20036;-74
2021/08/09 09:35:40;;;;;;;6.22;4.70;;;36.10;50.40;;;;;;5053019;28;20037;-74
2021/08/09 09:38:06;;;;;;;9.00;5.30;;;36.40;50.10;;;;;;5052113;28;20033;-75
2021/08/09 09:40:42;;;;;;;8.20;5.13;;;36.60;49.70;;;;;;5053279;28;20101;-74
2021/08/09 09:43:19;;;;;;;5.30;4.80;;;36.80;49.40;;;;;;5053516;28;20400;-74
2021/08/09 09:45:56;;;;;;;6.97;5.40;;;37.00;49.00;;;;;;5053554;28;20037;-75
2021/08/09 09:48:55;;;;;;;6.65;5.30;;;37.20;48.60;;;;;;5053400;28;20108;-75
2021/08/09 09:51:21;;;;;;;9.23;6.20;;;37.30;48.40;;;;;;5045588;28;20075;-76
2021/08/09 09:53:49;;;;;;;8.38;5.40;;;37.40;48.20;;;;;;5053969;28;20076;-75
2021/08/09 09:56:15;;;;;;;5.57;5.07;;;37.60;48.20;;;;;;5053319;28;20041;-75
2021/08/09 09:58:41;;;;;;;7.30;5.18;;;37.70;47.80;;;;;;5053328;28;20452;-76
2021/08/09 10:01:09;;;;;;;7.70;5.32;;;38.00;47.70;;;;;;5053226;28;20439;-76
2021/08/09 10:03:36;;;;;;;9.15;5.85;;;38.00;47.30;;;;;;5053510;28;20032;-76
2021/08/09 10:06:03;;;;;;;6.70;5.88;;;38.20;47.00;;;;;;5053121;28;20025;-75
2021/08/09 10:08:38;;;;;;;7.28;5.72;;;38.30;46.80;;;;;;5053654;28;20040;-75
2021/08/09 10:11:05;;;;;;;6.97;6.28;;;38.50;46.60;;;;;;5052832;28;20036;-75
2021/08/09 10:13:32;;;;;;;9.23;5.72;;;38.60;46.60;;;;;;5053121;28;20457;-75
2021/08/09 10:16:04;;;;;;;12.90;5.70;;;38.80;46.20;;;;;;5052745;28;20118;-75
2021/08/09 10:18:32;;;;;;;7.78;6.22;;;39.00;46.00;;;;;;5053091;28;20056;-75
2021/08/09 10:21:01;;;;;;;8.95;5.75;;;39.20;45.60;;;;;;5051943;28;20063;-75
2021/08/09 10:23:43;;;;;;;8.43;6.18;;;39.40;45.40;;;;;;5052940;28;20108;-75
2021/08/09 10:26:15;;;;;;;7.07;5.50;;;39.60;45.20;;;;;;5052657;28;20071;-75
2021/08/09 10:28:55;;;;;;;7.30;5.60;;;39.70;44.70;;;;;;5053046;28;20191;-75
2021/08/09 10:31:25;;;;;;;8.25;5.15;;;39.90;44.40;;;;;;5052849;28;20478;-75
2021/08/09 10:33:52;;;;;;;8.75;4.88;;;40.10;44.30;;;;;;5052922;28;20021;-75
2021/08/09 10:36:23;;;;;;;8.75;5.80;;;40.40;44.00;;;;;;5052781;28;20037;-75
2021/08/09 10:38:50;;;;;;;8.07;4.80;;;40.40;43.80;;;;;;5052451;28;20025;-75
2021/08/09 10:41:16;;;;;;;9.98;5.18;;;40.50;43.70;;;;;;5053452;28;20021;-75
2021/08/09 10:44:09;;;;;;;6.25;4.95;;;40.60;43.40;;;;;;5056627;28;20028;-75
2021/08/09 10:46:36;;;;;;;;;;;40.70;43.10;;;;;;5056936;28;20025;-75
2021/08/09 10:49:02;;;;;;;7.60;5.07;;;40.90;43.60;;;;;;5056504;28;19912;-75
2021/08/09 10:51:50;;;;;;;7.93;4.68;;;41.00;43.00;;;;;;5056166;28;20154;-75
2021/08/09 10:54:33;;;;;;;7.55;5.07;;;41.30;42.90;;;;;;5056870;28;20049;-75
2021/08/09 10:57:02;;;;;;;5.57;5.07;;;41.40;42.40;;;;;;5056175;28;20037;-74
2021/08/09 10:59:40;;;;;;;7.95;5.38;;;41.60;42.30;;;;;;5056498;28;20040;-76
2021/08/09 11:02:23;;;;;;;5.88;5.10;;;41.70;41.80;;;;;;5056205;28;20103;-74
2021/08/09 11:05:14;;;;;;;7.38;5.60;;;41.90;41.80;;;;;;5072152;28;20429;-74
2021/08/09 11:07:41;;;;;;;8.88;5.47;;;42.10;41.50;;;;;;5055666;28;20079;-76
2021/08/09 11:10:08;;;;;;;6.05;4.57;;;42.40;41.10;;;;;;5054684;28;20108;-76
2021/08/09 11:12:33;;;;;;;6.07;4.78;;;42.50;40.90;;;;;;5055917;28;20028;-76
2021/08/09 11:15:11;;;;;;;6.95;4.68;;;42.50;40.80;;;;;;5056096;28;20033;-74
2021/08/09 11:17:37;;;;;;;6.53;4.75;;;42.70;40.70;;;;;;5056213;28;20031;-75
2021/08/09 11:20:12;;;;;;;8.00;4.80;;;42.90;40.50;;;;;;5055830;28;20107;-76
2021/08/09 11:22:40;;;;;;;8.35;4.93;;;43.10;40.20;;;;;;5055348;28;20053;-75
2021/08/09 11:25:32;;;;;;;5.53;4.60;;;43.40;40.00;;;;;;5056084;28;20048;-76
2021/08/09 11:28:02;;;;;;;7.33;4.43;;;43.70;39.80;;;;;;5054375;28;20021;-75
2021/08/09 11:30:44;;;;;;;6.28;4.15;;;44.00;39.50;;;;;;5055676;28;20376;-75
2021/08/09 11:33:26;;;;;;;6.97;4.35;;;44.10;39.10;;;;;;5055935;28;20112;-74
2021/08/09 11:35:53;;;;;;;4.75;4.25;;;44.10;39.10;;;;;;5055169;28;20032;-75
2021/08/09 11:38:23;;;;;;;7.03;4.47;;;44.20;39.30;;;;;;5055645;28;20480;-75
2021/08/09 11:41:26;;;;;;;8.07;4.50;;;44.40;38.80;;;;;;5053598;28;20032;-75
2021/08/09 11:44:36;;;;;;;8.83;4.57;;;44.50;38.50;;;;;;5055625;28;20036;-75
2021/08/09 11:47:07;;;;;;;5.80;4.40;;;44.60;38.60;;;;;;5047242;28;20091;-75
2021/08/09 11:49:33;;;;;;;7.38;4.57;;;44.90;38.50;;;;;;5055583;28;20079;-75
2021/08/09 11:52:09;;;;;;;6.80;4.13;;;45.10;38.40;;;;;;5055220;28;20060;-75
2021/08/09 11:54:58;;;;;;;6.00;3.90;;;45.40;37.90;;;;;;5055207;28;20048;-75
2021/08/09 11:57:39;;;;;;;5.72;4.07;;;45.50;37.30;;;;;;5055355;28;20029;-75
2021/08/09 12:00:06;;;;;;;5.80;3.92;;;45.50;37.00;;;;;;5055083;28;20025;-74
2021/08/09 12:02:32;;;;;;;5.03;3.50;;;45.40;37.10;;;;;;5055074;28;20055;-76
2021/08/09 12:04:58;;;;;;;8.10;3.60;;;45.40;37.00;;;;;;5055611;28;20057;-76
2021/08/09 12:07:24;;;;;;;6.63;4.13;;;45.50;36.90;;;;;;5054700;28;20484;-75
2021/08/09 12:09:51;;;;;;;4.50;4.05;;;45.70;36.80;;;;;;5054954;28;20025;-74
2021/08/09 12:12:20;;;;;;;5.15;3.97;;;45.90;36.70;;;;;;5053743;28;20028;-74
2021/08/09 12:15:04;;;;;;;6.00;3.17;;;46.10;36.40;;;;;;5054887;28;20021;-75
2021/08/09 12:17:30;;;;;;;5.38;3.20;;;46.20;36.00;;;;;;5056001;28;20377;-74
2021/08/09 12:19:55;;;;;;;3.65;3.35;;;46.20;36.00;;;;;;5054479;28;20021;-75
2021/08/09 12:22:39;;;;;;;5.47;3.40;;;46.20;35.80;;;;;;5054576;28;20029;-74
2021/08/09 12:25:15;;;;;;;4.32;3.28;;;46.30;35.70;;;;;;5055264;28;20036;-74
2021/08/09 12:27:45;;;;;;;3.72;3.33;;;46.50;35.40;;;;;;5054210;28;20025;-74
2021/08/09 12:30:17;;;;;;;6.18;3.35;;;46.60;35.20;;;;;;5054263;28;20067;-74
2021/08/09 12:32:56;;;;;;;3.47;3.15;;;46.70;35.10;;;;;;5054549;28;20029;-74
2021/08/09 12:35:32;;;;;;;6.63;3.47;;;46.80;34.90;;;;;;5054155;28;20068;-75
2021/08/09 12:37:58;;;;;;;4.80;3.47;;;46.70;34.80;;;;;;5054442;28;20493;-76
2021/08/09 12:40:24;;;;;;;5.63;3.30;;;46.70;34.80;;;;;;5054376;28;20029;-74
2021/08/09 12:43:06;;;;;;;5.45;2.80;;;46.60;34.90;;;;;;5054250;28;20029;-75
2021/08/09 12:45:32;;;;;;;4.03;2.90;;;46.90;34.60;;;;;;5054552;28;20045;-75
2021/08/09 12:47:57;;;;;;;5.78;3.15;;;47.20;34.70;;;;;;5054216;28;20051;-75
2021/08/09 12:50:23;;;;;;;3.40;3.10;;;47.40;34.40;;;;;;5053461;28;20025;-75
2021/08/09 12:52:52;;;;;;;3.25;2.90;;;47.50;34.30;;;;;;5054655;28;20495;-75
2021/08/09 12:55:19;;;;;;;4.05;3.20;;;47.50;34.10;;;;;;5055093;28;20115;-75
2021/08/09 12:57:51;;;;;;;3.00;2.78;;;47.70;33.90;;;;;;5052316;28;20029;-77